createdAt,value
2023-01-02T00:28:17.588Z,1002.96
2023-01-02T00:28:58.003Z,1003.03
2023-01-02T00:29:38.463Z,1003.03
2023-01-02T00:30:18.904Z,1003.11
2023-01-02T00:30:59.399Z,1003.01
2023-01-02T00:31:39.967Z,1003.05
2023-01-02T00:32:20.419Z,1003.05
2023-01-02T00:33:00.902Z,1003.07
2023-01-02T00:33:41.454Z,1003.07
2023-01-02T00:34:21.963Z,1003.09
2023-01-02T00:35:02.527Z,1003
2023-01-02T00:35:42.983Z,1003
2023-01-02T00:36:23.472Z,1003.08
2023-01-02T00:37:03.971Z,1003.15
2023-01-02T00:37:44.512Z,1003.04
2023-01-02T00:38:24.986Z,1003.02
2023-01-02T00:39:05.460Z,1003.06
2023-01-02T00:39:45.931Z,1003.04
2023-01-02T00:40:26.418Z,1002.95
2023-01-02T00:41:06.926Z,1003.01
2023-01-02T00:41:47.424Z,1002.94
2023-01-02T00:42:27.864Z,1002.99
2023-01-02T00:43:08.343Z,1002.97
2023-01-02T00:43:48.857Z,1002.96
2023-01-02T00:44:29.363Z,1002.84
2023-01-02T00:45:09.851Z,1002.93
2023-01-02T00:45:50.372Z,1002.9
2023-01-02T00:46:30.944Z,1002.86
2023-01-02T00:47:11.344Z,1002.92
2023-01-02T00:47:51.831Z,1002.89
2023-01-02T00:48:32.313Z,1003.02
2023-01-02T00:49:12.814Z,1002.89
2023-01-02T00:49:53.332Z,1002.82
2023-01-02T00:50:33.793Z,1002.83
2023-01-02T00:51:14.291Z,1002.81
2023-01-02T00:51:54.793Z,1002.82
2023-01-02T00:52:35.292Z,1002.85
2023-01-02T00:53:15.791Z,1002.83
2023-01-02T00:53:56.258Z,1002.76
2023-01-02T00:54:36.750Z,1002.74
2023-01-02T00:55:17.247Z,1002.71
2023-01-02T00:55:57.745Z,1002.74
2023-01-02T00:56:38.192Z,1002.8
2023-01-02T00:57:18.699Z,1002.78
2023-01-02T00:57:59.197Z,1002.7
2023-01-02T00:58:39.706Z,1002.74
2023-01-02T00:59:20.250Z,1002.82
2023-01-02T01:00:00.800Z,1002.74
2023-01-02T01:00:41.357Z,1002.74
2023-01-02T01:01:21.913Z,1002.8
2023-01-02T01:02:02.631Z,1002.77
2023-01-02T01:02:42.966Z,1002.78
2023-01-02T01:03:23.317Z,1002.83
2023-01-02T01:04:03.811Z,1002.79
2023-01-02T01:04:44.980Z,1002.8
2023-01-02T01:05:25.427Z,1002.91
2023-01-02T01:06:05.953Z,1002.74
2023-01-02T01:06:46.488Z,1002.85
2023-01-02T01:07:26.989Z,1002.83
2023-01-02T01:08:07.508Z,1002.8
2023-01-02T01:08:47.976Z,1002.87
2023-01-02T01:09:28.453Z,1002.79
2023-01-02T01:10:08.902Z,1002.81
2023-01-02T01:10:49.371Z,1002.78
2023-01-02T01:11:29.845Z,1002.77
2023-01-02T01:12:50.872Z,1002.76
2023-01-02T01:13:31.344Z,1002.79
2023-01-02T01:14:11.852Z,1002.75
2023-01-02T01:14:52.351Z,1002.72
2023-01-02T01:15:32.828Z,1002.69
2023-01-02T01:16:13.361Z,1002.75
2023-01-02T01:16:53.868Z,1002.76
2023-01-02T01:17:34.347Z,1002.68
2023-01-02T01:18:14.889Z,1002.65
2023-01-02T01:18:55.386Z,1002.75
2023-01-02T01:19:35.886Z,1002.65
2023-01-02T01:20:16.406Z,1002.68
2023-01-02T01:20:56.898Z,1002.71
2023-01-02T01:21:37.387Z,1002.72
2023-01-02T01:22:17.874Z,1002.73
2023-01-02T01:22:58.345Z,1002.78
2023-01-02T01:23:38.836Z,1002.75
2023-01-02T01:24:19.308Z,1002.81
2023-01-02T01:24:59.865Z,1002.73
2023-01-02T01:25:40.255Z,1002.71
2023-01-02T01:26:20.746Z,1002.76
2023-01-02T01:27:41.741Z,1002.78
2023-01-02T01:28:22.247Z,1002.81
2023-01-02T01:29:02.747Z,1002.83
2023-01-02T01:29:43.273Z,1002.93
2023-01-02T01:30:23.784Z,1002.87
2023-01-02T01:31:04.253Z,1002.92
2023-01-02T01:31:44.764Z,1002.82
2023-01-02T01:32:25.231Z,1002.83
2023-01-02T01:33:05.735Z,1002.81
2023-01-02T01:33:46.277Z,1002.85
2023-01-02T01:34:26.778Z,1002.86
2023-01-02T01:35:07.324Z,1002.83
2023-01-02T01:35:47.772Z,1002.76
2023-01-02T01:36:28.265Z,1002.79
2023-01-02T01:37:49.216Z,1002.85
2023-01-02T01:38:29.730Z,1002.85
2023-01-02T01:39:10.183Z,1002.9
2023-01-02T01:39:55.480Z,1002.79
2023-01-02T01:40:31.188Z,1002.88
2023-01-02T01:41:11.677Z,1002.83
2023-01-02T01:41:52.180Z,1002.88
2023-01-02T01:42:32.659Z,1002.82
2023-01-02T01:43:13.147Z,1002.9
2023-01-02T01:43:53.633Z,1002.84
2023-01-02T01:44:34.140Z,1002.71
2023-01-02T01:45:14.599Z,1002.77
2023-01-02T01:45:55.138Z,1002.88
2023-01-02T01:46:35.591Z,1002.83
2023-01-02T01:47:16.105Z,1002.75
2023-01-02T01:47:56.583Z,1002.91
2023-01-02T01:48:37.035Z,1002.87
2023-01-02T01:49:17.568Z,1002.88
2023-01-02T01:50:02.889Z,1002.93
2023-01-02T01:50:38.623Z,1002.96
2023-01-02T01:51:19.092Z,1002.84
2023-01-02T01:51:59.580Z,1002.83
2023-01-02T01:52:40.063Z,1002.89
2023-01-02T01:53:20.559Z,1002.91
2023-01-02T01:54:01.060Z,1002.91
2023-01-02T01:54:41.528Z,1002.98
2023-01-02T01:56:02.561Z,1002.99
2023-01-02T01:56:42.991Z,1002.93
2023-01-02T01:57:23.454Z,1002.87
2023-01-02T01:58:03.964Z,1002.9
2023-01-02T01:58:44.440Z,1002.91
2023-01-02T01:59:24.935Z,1002.91
2023-01-02T02:00:05.453Z,1002.96
2023-01-02T02:00:45.966Z,1002.97
2023-01-02T02:01:26.685Z,1002.95
2023-01-02T02:02:07.085Z,1002.96
2023-01-02T02:02:47.577Z,1002.91
2023-01-02T02:03:27.926Z,1002.9
2023-01-02T02:04:08.402Z,1002.99
2023-01-02T02:04:48.911Z,1002.88
2023-01-02T02:06:09.948Z,1002.97
2023-01-02T02:06:50.426Z,1003.07
2023-01-02T02:07:30.917Z,1003.02
2023-01-02T02:08:11.382Z,1002.93
2023-01-02T02:08:51.846Z,1002.98
2023-01-02T02:09:32.319Z,1003
2023-01-02T02:10:12.817Z,1002.98
2023-01-02T02:10:53.280Z,1003.04
2023-01-02T02:11:33.741Z,1003.11
2023-01-02T02:12:14.260Z,1003.06
2023-01-02T02:12:54.740Z,1003.01
2023-01-02T02:13:35.231Z,1002.99
2023-01-02T02:14:15.711Z,1002.98
2023-01-02T02:14:56.280Z,1002.99
2023-01-02T02:15:36.711Z,1003.04
2023-01-02T02:16:17.254Z,1003.03
2023-01-02T02:16:57.763Z,1002.88
2023-01-02T02:17:38.188Z,1002.92
2023-01-02T02:18:59.210Z,1002.92
2023-01-02T02:19:39.687Z,1003.01
2023-01-02T02:20:20.186Z,1002.94
2023-01-02T02:21:00.656Z,1002.95
2023-01-02T02:21:41.143Z,1002.94
2023-01-02T02:22:21.627Z,1002.87
2023-01-02T02:23:02.098Z,1002.87
2023-01-02T02:23:42.593Z,1002.96
2023-01-02T02:24:23.166Z,1002.89
2023-01-02T02:25:03.625Z,1002.93
2023-01-02T02:25:44.144Z,1003
2023-01-02T02:26:24.628Z,1002.9
2023-01-02T02:27:05.112Z,1002.89
2023-01-02T02:27:45.556Z,1002.95
2023-01-02T02:28:26.068Z,1002.95
2023-01-02T02:29:06.548Z,1002.92
2023-01-02T02:29:47.025Z,1002.9
2023-01-02T02:30:27.508Z,1002.92
2023-01-02T02:31:07.981Z,1002.96
2023-01-02T02:31:48.533Z,1002.92
2023-01-02T02:32:28.971Z,1002.94
2023-01-02T02:33:09.423Z,1002.89
2023-01-02T02:33:49.927Z,1002.88
2023-01-02T02:35:10.897Z,1002.95
2023-01-02T02:35:51.376Z,1002.85
2023-01-02T02:36:31.852Z,1002.84
2023-01-02T02:37:12.372Z,1002.87
2023-01-02T02:37:52.874Z,1002.9
2023-01-02T02:38:33.387Z,1002.88
2023-01-02T02:39:13.867Z,1002.8
2023-01-02T02:39:54.381Z,1002.86
2023-01-02T02:40:34.864Z,1002.87
2023-01-02T02:41:15.353Z,1002.83
2023-01-02T02:41:55.814Z,1002.81
2023-01-02T02:42:36.317Z,1002.75
2023-01-02T02:43:16.825Z,1002.79
2023-01-02T02:43:57.322Z,1002.83
2023-01-02T02:44:37.813Z,1002.94
2023-01-02T02:45:18.320Z,1002.9
2023-01-02T02:45:58.906Z,1002.8
2023-01-02T02:46:39.330Z,1002.7
2023-01-02T02:47:19.809Z,1002.79
2023-01-02T02:48:00.307Z,1002.86
2023-01-02T02:48:46.310Z,1002.81
2023-01-02T02:49:21.246Z,1002.71
2023-01-02T02:50:01.743Z,1002.68
2023-01-02T02:50:42.241Z,1002.66
2023-01-02T02:51:22.726Z,1002.71
2023-01-02T02:52:03.173Z,1002.71
2023-01-02T02:52:43.653Z,1002.67
2023-01-02T02:53:24.161Z,1002.72
2023-01-02T02:54:04.653Z,1002.66
2023-01-02T02:54:45.122Z,1002.6
2023-01-02T02:55:25.581Z,1002.61
2023-01-02T02:56:06.073Z,1002.58
2023-01-02T02:56:46.544Z,1002.58
2023-01-02T02:57:27.039Z,1002.64
2023-01-02T02:58:07.556Z,1002.65
2023-01-02T02:58:48.047Z,1002.61
2023-01-02T02:59:28.549Z,1002.75
2023-01-02T03:00:09.018Z,1002.56
2023-01-02T03:00:49.574Z,1002.58
2023-01-02T03:01:31.020Z,1002.6
2023-01-02T03:02:10.611Z,1002.58
2023-01-02T03:03:31.563Z,1002.66
2023-01-02T03:05:44.263Z,1002.54
2023-01-02T03:06:24.836Z,1002.6
2023-01-02T03:07:05.294Z,1002.64
2023-01-02T03:07:45.787Z,1002.78
2023-01-02T03:08:31.091Z,1002.74
2023-01-02T03:09:06.823Z,1002.66
2023-01-02T03:09:47.256Z,1002.72
2023-01-02T03:11:08.271Z,1002.71
2023-01-02T03:11:48.736Z,1002.7
2023-01-02T03:12:29.253Z,1002.82
2023-01-02T03:13:09.725Z,1002.79
2023-01-02T03:13:50.205Z,1002.8
2023-01-02T03:14:30.674Z,1002.76
2023-01-02T03:15:11.185Z,1002.77
2023-01-02T03:15:51.707Z,1002.75
2023-01-02T03:16:32.270Z,1002.76
2023-01-02T03:17:12.756Z,1002.8
2023-01-02T03:17:53.244Z,1002.86
2023-01-02T03:18:33.715Z,1002.86
2023-01-02T03:19:14.212Z,1002.87
2023-01-02T03:19:54.678Z,1002.83
2023-01-02T03:21:15.667Z,1002.88
2023-01-02T03:21:56.176Z,1002.84
2023-01-02T03:22:36.643Z,1002.89
2023-01-02T03:23:17.204Z,1002.98
2023-01-02T03:23:57.653Z,1002.93
2023-01-02T03:24:38.124Z,1002.99
2023-01-02T03:25:19.473Z,1002.87
2023-01-02T03:25:59.972Z,1002.9
2023-01-02T03:26:40.465Z,1002.8
2023-01-02T03:27:20.953Z,1002.83
2023-01-02T03:28:01.471Z,1002.78
2023-01-02T03:28:41.941Z,1002.78
2023-01-02T03:29:22.453Z,1002.81
2023-01-02T03:30:02.961Z,1002.82
2023-01-02T03:31:24.015Z,1002.85
2023-01-02T03:32:04.554Z,1002.95
2023-01-02T03:32:44.998Z,1002.9
2023-01-02T03:33:25.567Z,1002.88
2023-01-02T03:34:06.034Z,1002.9
2023-01-02T03:34:46.523Z,1002.85
2023-01-02T03:35:26.987Z,1002.86
2023-01-02T03:36:07.460Z,1002.85
2023-01-02T03:36:47.959Z,1002.83
2023-01-02T03:37:28.454Z,1002.91
2023-01-02T03:38:08.963Z,1002.78
2023-01-02T03:38:49.463Z,1002.84
2023-01-02T03:39:29.983Z,1002.91
2023-01-02T03:40:10.477Z,1002.72
2023-01-02T03:40:50.987Z,1002.73
2023-01-02T03:41:31.509Z,1002.81
2023-01-02T03:42:12.003Z,1002.74
2023-01-02T03:42:52.515Z,1002.76
2023-01-02T03:43:33.025Z,1002.77
2023-01-02T03:44:14.434Z,1002.79
2023-01-02T03:44:54.913Z,1002.81
2023-01-02T03:45:35.419Z,1002.78
2023-01-02T03:46:15.939Z,1002.72
2023-01-02T03:46:56.353Z,1002.7
2023-01-02T03:47:36.828Z,1002.77
2023-01-02T03:48:17.395Z,1002.78
2023-01-02T03:48:57.846Z,1002.84
2023-01-02T03:49:38.308Z,1002.91
2023-01-02T03:50:18.791Z,1002.91
2023-01-02T03:50:59.266Z,1002.91
2023-01-02T03:51:40.507Z,1002.91
2023-01-02T03:52:25.714Z,1002.9
2023-01-02T03:53:01.500Z,1002.91
2023-01-02T03:53:42.005Z,1002.95
2023-01-02T03:54:22.533Z,1002.95
2023-01-02T03:55:03.008Z,1003.01
2023-01-02T03:55:43.475Z,1002.99
2023-01-02T03:56:23.969Z,1002.95
2023-01-02T03:57:04.511Z,1002.93
2023-01-02T03:57:44.971Z,1003.03
2023-01-02T03:58:25.455Z,1002.96
2023-01-02T03:59:05.977Z,1002.93
2023-01-02T03:59:46.411Z,1002.92
2023-01-02T04:00:26.965Z,1002.93
2023-01-02T04:01:48.075Z,1002.95
2023-01-02T04:02:28.642Z,1002.94
2023-01-02T04:03:09.042Z,1002.88
2023-01-02T04:03:49.434Z,1002.89
2023-01-02T04:04:29.905Z,1002.91
2023-01-02T04:05:10.353Z,1002.94
2023-01-02T04:05:50.856Z,1002.93
2023-01-02T04:06:31.371Z,1002.96
2023-01-02T04:07:11.808Z,1002.95
2023-01-02T04:07:52.293Z,1002.92
2023-01-02T04:08:32.829Z,1002.87
2023-01-02T04:09:13.324Z,1002.85
2023-01-02T04:09:53.792Z,1002.81
2023-01-02T04:10:34.339Z,1002.72
2023-01-02T04:11:14.791Z,1002.85
2023-01-02T04:11:55.342Z,1002.82
2023-01-02T04:12:35.867Z,1002.88
2023-01-02T04:13:16.362Z,1002.87
2023-01-02T04:14:37.321Z,1002.82
2023-01-02T04:15:17.859Z,1002.85
2023-01-02T04:15:58.315Z,1002.9
2023-01-02T04:16:38.820Z,1002.9
2023-01-02T04:17:19.314Z,1002.87
2023-01-02T04:17:59.811Z,1002.95
2023-01-02T04:18:46.317Z,1002.94
2023-01-02T04:19:20.837Z,1002.96
2023-01-02T04:20:01.331Z,1002.88
2023-01-02T04:20:41.854Z,1002.93
2023-01-02T04:21:22.405Z,1002.98
2023-01-02T04:22:02.876Z,1003
2023-01-02T04:22:43.404Z,1003.02
2023-01-02T04:23:23.960Z,1003.07
2023-01-02T04:24:44.863Z,1003.11
2023-01-02T04:25:25.366Z,1003.1
2023-01-02T04:26:05.808Z,1003.08
2023-01-02T04:26:46.327Z,1003.07
2023-01-02T04:27:26.816Z,1003.06
2023-01-02T04:28:07.337Z,1003.06
2023-01-02T04:28:47.780Z,1003.07
2023-01-02T04:29:28.327Z,1003.11
2023-01-02T04:30:08.954Z,1003.13
2023-01-02T04:30:49.374Z,1003.12
2023-01-02T04:31:29.915Z,1003.14
2023-01-02T04:32:10.358Z,1003.14
2023-01-02T04:32:50.886Z,1003.19
2023-01-02T04:33:31.474Z,1003.22
2023-01-02T04:34:52.510Z,1003.25
2023-01-02T04:35:33.013Z,1003.22
2023-01-02T04:36:13.464Z,1003.18
2023-01-02T04:36:53.965Z,1003.2
2023-01-02T04:37:34.422Z,1003.21
2023-01-02T04:38:14.954Z,1003.27
2023-01-02T04:38:55.435Z,1003.26
2023-01-02T04:39:35.962Z,1003.25
2023-01-02T04:40:16.454Z,1003.28
2023-01-02T04:40:56.975Z,1003.31
2023-01-02T04:42:17.959Z,1003.31
2023-01-02T04:42:58.428Z,1003.3
2023-01-02T04:43:38.978Z,1003.27
2023-01-02T04:44:19.511Z,1003.3
2023-01-02T04:44:59.989Z,1003.31
2023-01-02T04:45:40.568Z,1003.33
2023-01-02T04:46:21.015Z,1003.4
2023-01-02T04:47:01.520Z,1003.32
2023-01-02T04:47:41.988Z,1003.35
2023-01-02T04:48:22.513Z,1003.37
2023-01-02T04:49:02.976Z,1003.34
2023-01-02T04:49:43.474Z,1003.38
2023-01-02T04:50:23.953Z,1003.34
2023-01-02T04:51:04.441Z,1003.4
2023-01-02T04:52:25.526Z,1003.43
2023-01-02T04:53:05.960Z,1003.43
2023-01-02T04:53:46.446Z,1003.48
2023-01-02T04:54:26.965Z,1003.4
2023-01-02T04:55:07.495Z,1003.41
2023-01-02T04:55:47.986Z,1003.44
2023-01-02T04:56:28.468Z,1003.46
2023-01-02T04:57:09.566Z,1003.49
2023-01-02T04:57:50.079Z,1003.44
2023-01-02T04:58:30.562Z,1003.52
2023-01-02T04:59:11.114Z,1003.47
2023-01-02T04:59:51.572Z,1003.48
2023-01-02T05:00:32.131Z,1003.51
2023-01-02T05:01:12.781Z,1003.56
2023-01-02T05:01:53.268Z,1003.54
2023-01-02T05:02:33.753Z,1003.54
2023-01-02T05:03:14.185Z,1003.53
2023-01-02T05:03:54.721Z,1003.54
2023-01-02T05:04:35.198Z,1003.5
2023-01-02T05:05:15.705Z,1003.55
2023-01-02T05:05:56.202Z,1003.57
2023-01-02T05:06:36.684Z,1003.58
2023-01-02T05:07:17.184Z,1003.59
2023-01-02T05:07:57.727Z,1003.54
2023-01-02T05:08:38.172Z,1003.52
2023-01-02T05:09:59.218Z,1003.54
2023-01-02T05:10:39.734Z,1003.53
2023-01-02T05:11:20.252Z,1003.53
2023-01-02T05:12:00.803Z,1003.57
2023-01-02T05:12:41.327Z,1003.54
2023-01-02T05:13:21.873Z,1003.56
2023-01-02T05:14:07.071Z,1003.58
2023-01-02T05:14:42.862Z,1003.6
2023-01-02T05:15:23.347Z,1003.63
2023-01-02T05:16:03.944Z,1003.58
2023-01-02T05:16:44.378Z,1003.6
2023-01-02T05:17:24.901Z,1003.55
2023-01-02T05:18:05.396Z,1003.54
2023-01-02T05:18:45.879Z,1003.58
2023-01-02T05:19:26.410Z,1003.59
2023-01-02T05:20:06.912Z,1003.64
2023-01-02T05:20:47.403Z,1003.65
2023-01-02T05:21:27.927Z,1003.61
2023-01-02T05:22:48.963Z,1003.62
2023-01-02T05:23:29.442Z,1003.62
2023-01-02T05:24:09.961Z,1003.67
2023-01-02T05:24:50.473Z,1003.61
2023-01-02T05:25:30.994Z,1003.74
2023-01-02T05:26:11.484Z,1003.68
2023-01-02T05:26:52.036Z,1003.66
2023-01-02T05:27:32.536Z,1003.63
2023-01-02T05:28:13.037Z,1003.61
2023-01-02T05:28:53.553Z,1003.67
2023-01-02T05:30:14.604Z,1003.73
2023-01-02T05:30:55.103Z,1003.71
2023-01-02T05:31:35.682Z,1003.64
2023-01-02T05:32:16.079Z,1003.7
2023-01-02T05:32:56.630Z,1003.72
2023-01-02T05:33:37.093Z,1003.67
2023-01-02T05:34:17.603Z,1003.9
2023-01-02T05:34:58.076Z,1003.75
2023-01-02T05:35:38.623Z,1003.75
2023-01-02T05:36:19.960Z,1003.75
2023-01-02T05:37:00.486Z,1003.77
2023-01-02T05:37:40.972Z,1003.73
2023-01-02T05:38:21.476Z,1003.67
2023-01-02T05:39:01.982Z,1003.72
2023-01-02T05:39:42.437Z,1003.72
2023-01-02T05:40:22.919Z,1003.59
2023-01-02T05:41:03.441Z,1003.7
2023-01-02T05:41:43.968Z,1003.71
2023-01-02T05:42:24.503Z,1003.74
2023-01-02T05:43:05.021Z,1003.71
2023-01-02T05:43:45.612Z,1003.75
2023-01-02T05:44:26.071Z,1003.7
2023-01-02T05:45:06.559Z,1003.72
2023-01-02T05:45:47.088Z,1003.7
2023-01-02T05:46:28.317Z,1003.72
2023-01-02T05:47:49.401Z,1003.72
2023-01-02T05:48:29.882Z,1003.77
2023-01-02T05:49:10.412Z,1003.78
2023-01-02T05:49:50.924Z,1003.77
2023-01-02T05:50:31.421Z,1003.81
2023-01-02T05:51:12.121Z,1003.87
2023-01-02T05:51:52.625Z,1003.82
2023-01-02T05:52:33.101Z,1003.83
2023-01-02T05:53:13.613Z,1003.77
2023-01-02T06:31:14.845Z,1004.03
2023-01-02T06:31:55.281Z,1004.04
2023-01-02T06:32:35.756Z,1004.07
2023-01-02T06:33:16.282Z,1004.14
2023-01-02T06:33:56.916Z,1004.03
2023-01-02T06:34:37.277Z,1004.08
2023-01-02T06:35:17.853Z,1004.09
2023-01-02T06:35:58.342Z,1004.13
2023-01-02T06:36:38.790Z,1004.12
2023-01-02T06:37:19.254Z,1004.06
2023-01-02T06:37:59.746Z,1004.13
2023-01-02T06:38:40.264Z,1004.1
2023-01-02T06:39:20.803Z,1004.07
2023-01-02T06:40:01.319Z,1004.07
2023-01-02T06:40:41.811Z,1004.04
2023-01-02T06:41:22.366Z,1004.06
2023-01-02T06:42:02.836Z,1004.07
2023-01-02T06:42:43.386Z,1004.02
2023-01-02T06:43:23.883Z,1004.05
2023-01-02T06:44:04.415Z,1004.03
2023-01-02T06:44:44.975Z,1004.09
2023-01-02T06:45:25.553Z,1004.04
2023-01-02T06:46:06.023Z,1004.14
2023-01-02T06:46:46.600Z,1004.01
2023-01-02T06:48:07.487Z,1004.1
2023-01-02T06:48:49.034Z,1004.05
2023-01-02T06:49:29.413Z,1004.07
2023-01-02T06:50:09.924Z,1004.05
2023-01-02T06:50:50.399Z,1004.06
2023-01-02T06:51:30.897Z,1004.08
2023-01-02T06:52:11.381Z,1004.07
2023-01-02T06:52:51.881Z,1004.03
2023-01-02T06:53:32.380Z,1004.06
2023-01-02T06:54:12.905Z,1004.02
2023-01-02T06:54:53.467Z,1004.02
2023-01-02T06:55:33.953Z,1004.05
2023-01-02T06:56:14.416Z,1004.04
2023-01-02T06:56:54.963Z,1004.13
2023-01-02T06:57:35.604Z,1004.16
2023-01-02T06:58:19.461Z,1004.15
2023-01-02T06:58:56.582Z,1004.18
2023-01-02T06:59:37.155Z,1004.18
2023-01-02T07:00:17.748Z,1004.18
2023-01-02T07:00:58.303Z,1004.2
2023-01-02T07:01:38.913Z,1004.15
2023-01-02T07:02:59.851Z,1004.17
2023-01-02T07:03:40.309Z,1004.2
2023-01-02T07:04:20.797Z,1004.2
2023-01-02T07:07:19.340Z,1004.28
2023-01-02T07:07:59.839Z,1004.26
2023-01-02T07:08:40.322Z,1004.26
2023-01-02T07:09:20.759Z,1004.27
2023-01-02T07:10:01.268Z,1004.29
2023-01-02T07:10:41.736Z,1004.27
2023-01-02T07:11:22.276Z,1004.28
2023-01-02T07:12:02.843Z,1004.32
2023-01-02T07:12:43.381Z,1004.38
2023-01-02T07:13:23.884Z,1004.37
2023-01-02T07:14:04.373Z,1004.4
2023-01-02T07:14:44.925Z,1004.36
2023-01-02T07:15:25.427Z,1004.38
2023-01-02T07:16:05.971Z,1004.41
2023-01-02T07:16:46.517Z,1004.39
2023-01-02T07:17:27.050Z,1004.38
2023-01-02T07:18:07.521Z,1004.33
2023-01-02T07:18:48.019Z,1004.38
2023-01-02T07:19:28.533Z,1004.4
2023-01-02T07:20:09.034Z,1004.45
2023-01-02T07:20:49.564Z,1004.46
2023-01-02T07:21:30.049Z,1004.42
2023-01-02T07:22:10.585Z,1004.39
2023-01-02T07:22:51.065Z,1004.43
2023-01-02T07:23:31.541Z,1004.46
2023-01-02T07:24:12.045Z,1004.44
2023-01-02T07:24:52.586Z,1004.45
2023-01-02T07:25:33.063Z,1004.41
2023-01-02T07:26:13.584Z,1004.49
2023-01-02T07:26:54.092Z,1004.45
2023-01-02T07:27:34.623Z,1004.47
2023-01-02T07:28:15.214Z,1004.49
2023-01-02T07:28:55.768Z,1004.51
2023-01-02T07:29:36.213Z,1004.52
2023-01-02T07:30:16.710Z,1004.48
2023-01-02T07:30:57.382Z,1004.56
2023-01-02T07:31:38.106Z,1004.53
2023-01-02T07:32:22.500Z,1004.54
2023-01-02T07:32:58.977Z,1004.58
2023-01-02T07:33:39.520Z,1004.57
2023-01-02T07:34:19.982Z,1004.53
2023-01-02T07:35:41.099Z,1004.54
2023-01-02T07:36:21.796Z,1004.61
2023-01-02T07:37:02.419Z,1004.59
2023-01-02T07:37:42.997Z,1004.57
2023-01-02T07:38:23.629Z,1004.6
2023-01-02T07:39:04.313Z,1004.67
2023-01-02T07:39:44.904Z,1004.67
2023-01-02T07:40:30.289Z,1004.64
2023-01-02T07:41:05.896Z,1004.66
2023-01-02T07:41:46.466Z,1004.71
2023-01-02T07:42:27.090Z,1004.61
2023-01-02T07:43:07.662Z,1004.61
2023-01-02T07:43:48.147Z,1004.62
2023-01-02T07:44:28.645Z,1004.67
2023-01-02T07:45:09.174Z,1004.66
2023-01-02T07:45:51.029Z,1004.67
2023-01-02T07:46:30.233Z,1004.72
2023-01-02T07:47:10.818Z,1004.72
2023-01-02T07:47:51.332Z,1004.7
2023-01-02T07:48:31.920Z,1004.68
2023-01-02T07:49:12.449Z,1004.72
2023-01-02T07:49:52.936Z,1004.76
2023-01-02T07:50:33.467Z,1004.78
2023-01-02T07:51:13.993Z,1004.74
2023-01-02T07:51:54.526Z,1004.78
2023-01-02T07:52:35.024Z,1004.75
2023-01-02T07:53:15.575Z,1004.83
2023-01-02T07:53:56.077Z,1004.82
2023-01-02T07:54:36.622Z,1004.83
2023-01-02T07:55:17.115Z,1004.84
2023-01-02T07:55:57.608Z,1004.85
2023-01-02T07:56:38.137Z,1004.84
2023-01-02T07:57:18.619Z,1004.85
2023-01-02T07:57:59.160Z,1004.84
2023-01-02T07:58:39.673Z,1004.83
2023-01-02T07:59:20.201Z,1004.9
2023-01-02T08:00:00.712Z,1004.85
2023-01-02T08:00:41.211Z,1004.91
2023-01-02T08:01:21.887Z,1004.88
2023-01-02T08:02:02.378Z,1004.93
2023-01-02T08:02:42.851Z,1004.96
2023-01-02T08:03:23.335Z,1005.01
2023-01-02T08:04:03.841Z,1005.02
2023-01-02T08:04:44.345Z,1005.04
2023-01-02T08:05:24.838Z,1005.06
2023-01-02T08:06:05.328Z,1005.07
2023-01-02T08:06:45.843Z,1005.1
2023-01-02T08:07:26.315Z,1005.1
2023-01-02T08:08:06.811Z,1005.12
2023-01-02T08:08:47.335Z,1005.17
2023-01-02T08:09:27.937Z,1005.16
2023-01-02T08:10:08.413Z,1005.2
2023-01-02T08:10:48.938Z,1005.22
2023-01-02T08:11:29.444Z,1005.24
2023-01-02T08:12:09.960Z,1005.29
2023-01-02T08:13:30.994Z,1005.33
2023-01-02T08:14:11.537Z,1005.34
2023-01-02T08:14:52.106Z,1005.35
2023-01-02T08:15:32.528Z,1005.35
2023-01-02T08:16:13.065Z,1005.38
2023-01-02T08:16:53.672Z,1005.36
2023-01-02T08:17:34.071Z,1005.39
2023-01-02T08:18:14.649Z,1005.38
2023-01-02T08:18:55.251Z,1005.4
2023-01-02T08:19:35.863Z,1005.43
2023-01-02T08:20:16.258Z,1005.44
2023-01-02T08:20:56.781Z,1005.47
2023-01-02T08:21:37.367Z,1005.54
2023-01-02T08:22:18.023Z,1005.54
2023-01-02T08:23:39.072Z,1005.59
2023-01-02T08:24:19.553Z,1005.64
2023-01-02T08:25:00.027Z,1005.62
2023-01-02T08:25:40.630Z,1005.66
2023-01-02T08:26:21.175Z,1005.7
2023-01-02T08:27:01.766Z,1005.67
2023-01-02T08:27:42.265Z,1005.62
2023-01-02T08:28:22.785Z,1005.57
2023-01-02T08:29:03.364Z,1005.68
2023-01-02T08:29:43.824Z,1005.65
2023-01-02T08:30:24.336Z,1005.67
2023-01-02T08:31:04.939Z,1005.67
2023-01-02T08:31:45.415Z,1005.69
2023-01-02T08:32:25.967Z,1005.68
2023-01-02T08:33:06.489Z,1005.7
2023-01-02T08:33:47.030Z,1005.65
2023-01-02T08:34:27.608Z,1005.67
2023-01-02T08:35:08.247Z,1005.68
2023-01-02T08:35:48.617Z,1005.68
2023-01-02T08:36:29.111Z,1005.71
2023-01-02T08:37:09.625Z,1005.69
2023-01-02T08:37:50.698Z,1005.73
2023-01-02T08:38:30.684Z,1005.74
2023-01-02T08:39:11.193Z,1005.77
2023-01-02T08:39:51.678Z,1005.75
2023-01-02T08:40:32.187Z,1005.77
2023-01-02T08:41:12.723Z,1005.75
2023-01-02T08:41:53.215Z,1005.79
2023-01-02T08:42:33.735Z,1005.84
2023-01-02T08:43:16.175Z,1005.82
2023-01-02T08:43:54.767Z,1005.84
2023-01-02T08:44:35.275Z,1005.84
2023-01-02T08:45:15.830Z,1005.84
2023-01-02T08:45:56.407Z,1005.76
2023-01-02T08:46:42.120Z,1005.78
2023-01-02T08:47:17.366Z,1005.88
2023-01-02T08:47:57.967Z,1005.84
2023-01-02T08:48:38.381Z,1005.9
2023-01-02T08:49:18.881Z,1005.91
2023-01-02T08:49:59.365Z,1005.86
2023-01-02T08:50:39.908Z,1005.96
2023-01-02T08:51:20.495Z,1005.85
2023-01-02T08:52:01.020Z,1006.02
2023-01-02T08:52:41.577Z,1005.99
2023-01-02T08:53:22.104Z,1006.03
2023-01-02T08:54:02.589Z,1005.99
2023-01-02T08:54:43.114Z,1005.98
2023-01-02T08:55:23.627Z,1005.89
2023-01-02T08:56:44.687Z,1006.11
2023-01-02T08:57:25.227Z,1006.08
2023-01-02T08:59:23.065Z,1006.15
2023-01-02T09:00:03.675Z,1006.08
2023-01-02T09:00:44.171Z,1006.02
2023-01-02T09:01:25.167Z,1006.12
2023-01-02T09:02:06.393Z,1006.17
2023-01-02T09:02:46.964Z,1006.06
2023-01-02T09:04:12.319Z,1006.19
2023-01-02T09:04:48.556Z,1006.14
2023-01-02T09:05:29.567Z,1006.22
2023-01-02T09:06:10.323Z,1006.15
2023-01-02T09:06:50.839Z,1006.26
2023-01-02T09:07:31.450Z,1006.15
2023-01-02T09:08:11.977Z,1006.26
2023-01-02T09:08:52.651Z,1006.23
2023-01-02T09:09:33.185Z,1006.25
2023-01-02T09:10:13.762Z,1006.21
2023-01-02T09:10:54.305Z,1006.28
2023-01-02T09:11:34.856Z,1006.23
2023-01-02T09:12:15.420Z,1006.18
2023-01-02T09:12:56.092Z,1006.18
2023-01-02T09:14:17.547Z,1006.33
2023-01-02T09:14:58.371Z,1006.39
2023-01-02T09:15:38.966Z,1006.31
2023-01-02T09:16:19.618Z,1006.39
2023-01-02T09:17:00.084Z,1006.38
2023-01-02T09:17:40.590Z,1006.41
2023-01-02T09:18:25.735Z,1006.42
2023-01-02T09:19:01.720Z,1006.44
2023-01-02T09:19:42.244Z,1006.42
2023-01-02T09:22:42.913Z,1006.51
2023-01-02T09:23:23.976Z,1006.54
2023-01-02T09:24:05.152Z,1006.49
2023-01-02T09:24:46.476Z,1006.57
2023-01-02T09:25:28.047Z,1006.59
2023-01-02T09:26:09.192Z,1006.61
2023-01-02T09:26:53.048Z,1006.7
2023-01-02T09:27:34.538Z,1006.66
2023-01-02T09:28:15.805Z,1006.71
2023-01-02T09:28:57.378Z,1006.74
2023-01-02T09:29:39.644Z,1006.73
2023-01-02T09:30:21.155Z,1006.76
2023-01-02T09:31:46.064Z,1006.8
2023-01-02T09:32:26.874Z,1006.81
2023-01-02T09:33:07.972Z,1006.81
2023-01-02T09:33:50.225Z,1006.84
2023-01-02T09:34:31.232Z,1006.85
2023-01-02T09:35:12.540Z,1006.83
2023-01-02T09:35:54.802Z,1006.86
2023-01-02T09:36:35.945Z,1006.88
2023-01-02T09:37:18.116Z,1006.84
2023-01-02T09:38:00.328Z,1006.89
2023-01-02T09:38:41.666Z,1006.92
2023-01-02T09:39:27.078Z,1006.9
2023-01-02T09:40:04.299Z,1006.89
2023-01-02T09:40:46.143Z,1006.92
2023-01-02T09:41:27.257Z,1006.94
2023-01-02T09:42:08.318Z,1006.92
2023-01-02T09:42:49.462Z,1006.97
2023-01-02T09:43:30.520Z,1006.94
2023-01-02T09:46:30.640Z,1006.98
2023-01-02T09:47:14.183Z,1007.06
2023-01-02T09:47:54.931Z,1007.07